Time;durP1;ratioP1;P1;durP2;ratioP2;P2;SDS_P1;SDS_P2;PMS_P1;PMS_P2;Temp;Humidity;BMP_temperature;BMP_pressure;BME280_temperature;BME280_humidity;BME280_pressure;Samples;Min_cycle;Max_cycle;Signal;HPM_P1;HPM_P2
2023/03/24 00:02:24;;;;;;;9.57;9.27;;;13.80;99.90;;;;;;6200379;23;20199;-86
2023/03/24 00:04:57;;;;;;;9.30;9.00;;;13.80;99.90;;;;;;6201080;23;20279;-83
2023/03/24 00:07:29;;;;;;;9.52;9.23;;;13.70;99.90;;;;;;6202627;23;20196;-83
2023/03/24 00:09:57;;;;;;;9.47;9.17;;;13.70;99.90;;;;;;6198386;23;20235;-83
2023/03/24 00:12:25;;;;;;;9.60;9.30;;;13.60;99.90;;;;;;6201238;23;20188;-82
2023/03/24 00:14:53;;;;;;;9.70;9.40;;;13.60;99.90;;;;;;6198075;23;20202;-82
2023/03/24 00:17:24;;;;;;;9.30;9.00;;;13.60;99.90;;;;;;6198895;23;20247;-82
2023/03/24 00:19:54;;;;;;;9.30;9.00;;;13.50;99.90;;;;;;6199111;23;20223;-83
2023/03/24 00:22:22;;;;;;;9.40;9.10;;;13.50;99.90;;;;;;6200276;23;20198;-82
2023/03/24 00:24:53;;;;;;;9.50;9.20;;;13.50;99.90;;;;;;6199322;23;20199;-82
2023/03/24 00:27:24;;;;;;;9.20;8.90;;;13.50;99.90;;;;;;6199331;23;20199;-83
2023/03/24 00:29:51;;;;;;;9.47;9.17;;;13.40;99.90;;;;;;6199236;23;20207;-82
2023/03/24 00:32:20;;;;;;;9.90;9.60;;;13.40;99.90;;;;;;6198916;23;21003;-82
2023/03/24 00:34:49;;;;;;;9.80;9.50;;;13.40;99.90;;;;;;6198930;23;20726;-81
2023/03/24 00:37:16;;;;;;;9.60;9.30;;;13.50;99.90;;;;;;6199973;23;20207;-83
2023/03/24 00:39:45;;;;;;;9.67;9.37;;;13.40;99.90;;;;;;6198781;23;20196;-83
2023/03/24 00:42:15;;;;;;;9.70;9.40;;;13.40;99.90;;;;;;6199820;23;20223;-82
2023/03/24 00:44:43;;;;;;;9.20;8.90;;;13.40;99.90;;;;;;6200434;23;20228;-82
2023/03/24 00:47:11;;;;;;;9.40;9.10;;;13.40;99.90;;;;;;6200254;23;20246;-82
2023/03/24 00:49:47;;;;;;;9.53;9.23;;;13.40;99.90;;;;;;6199601;23;20200;-82
2023/03/24 00:52:19;;;;;;;9.80;9.50;;;13.30;99.90;;;;;;6199192;23;20218;-82
2023/03/24 00:54:47;;;;;;;9.43;9.13;;;13.30;99.90;;;;;;6200661;23;20211;-82
2023/03/24 00:57:22;;;;;;;9.60;9.30;;;13.20;99.90;;;;;;6208217;23;20195;-81
2023/03/24 00:59:53;;;;;;;9.53;9.23;;;13.20;99.90;;;;;;6203403;23;20198;-81
2023/03/24 01:02:23;;;;;;;9.67;9.37;;;13.20;99.90;;;;;;6202869;23;20202;-83
2023/03/24 01:04:54;;;;;;;10.00;9.70;;;13.10;99.90;;;;;;6202667;23;20202;-82
2023/03/24 01:07:22;;;;;;;9.60;9.30;;;13.10;99.90;;;;;;6203168;23;20210;-81
2023/03/24 01:09:56;;;;;;;9.90;9.60;;;13.00;99.90;;;;;;6211388;23;20207;-82
2023/03/24 01:12:28;;;;;;;9.70;9.40;;;13.00;99.90;;;;;;6204738;23;20211;-82
2023/03/24 01:14:57;;;;;;;9.40;9.10;;;12.90;99.90;;;;;;6202225;23;20191;-82
2023/03/24 01:17:26;;;;;;;9.57;9.27;;;12.90;99.90;;;;;;6202211;23;20206;-82
2023/03/24 01:19:54;;;;;;;9.40;9.10;;;12.90;99.90;;;;;;6206897;23;20241;-81
2023/03/24 01:22:24;;;;;;;9.63;9.33;;;12.90;99.90;;;;;;6201940;23;20191;-81
2023/03/24 01:24:54;;;;;;;10.00;9.70;;;12.80;99.90;;;;;;6200700;23;20204;-83
2023/03/24 01:27:22;;;;;;;9.60;9.30;;;12.80;99.90;;;;;;6200245;23;20201;-83
2023/03/24 01:29:50;;;;;;;9.63;9.33;;;12.80;99.90;;;;;;6199094;23;20211;-83
2023/03/24 01:32:18;;;;;;;9.47;9.17;;;12.70;99.90;;;;;;6200097;23;20234;-83
2023/03/24 01:34:45;;;;;;;9.50;9.20;;;12.70;99.90;;;;;;6200235;23;20196;-82
2023/03/24 01:37:13;;;;;;;9.50;9.20;;;12.70;99.90;;;;;;6200553;23;20192;-83
2023/03/24 01:39:41;;;;;;;9.60;9.30;;;12.70;99.90;;;;;;6199181;23;20210;-83
2023/03/24 01:42:17;;;;;;;9.50;9.20;;;12.70;99.90;;;;;;6200684;23;20203;-83
2023/03/24 01:44:48;;;;;;;9.50;9.20;;;12.60;99.90;;;;;;6199894;23;20191;-83
2023/03/24 01:47:18;;;;;;;9.90;9.60;;;12.60;99.90;;;;;;6198928;23;20229;-82
2023/03/24 01:49:50;;;;;;;9.80;9.50;;;12.60;99.90;;;;;;6198248;23;20211;-83
2023/03/24 01:52:24;;;;;;;9.50;9.20;;;12.60;99.90;;;;;;6199371;23;20251;-83
2023/03/24 01:54:57;;;;;;;9.40;9.10;;;12.50;99.90;;;;;;6199200;23;20250;-83
2023/03/24 01:57:30;;;;;;;10.00;9.70;;;12.50;99.90;;;;;;6198416;23;20195;-83
2023/03/24 02:00:04;;;;;;;9.70;9.40;;;12.40;99.90;;;;;;6198604;23;20258;-83
2023/03/24 02:02:35;;;;;;;9.90;9.60;;;12.50;99.90;;;;;;6204602;23;20299;-83
2023/03/24 02:05:06;;;;;;;9.90;9.60;;;12.40;99.90;;;;;;6205814;23;20196;-82
2023/03/24 02:07:36;;;;;;;9.73;9.43;;;12.40;99.90;;;;;;6204753;23;20235;-83
2023/03/24 02:10:09;;;;;;;9.70;9.40;;;12.40;99.90;;;;;;6198123;23;20215;-83
2023/03/24 02:12:37;;;;;;;9.97;9.67;;;12.40;99.90;;;;;;6198359;23;20195;-83
2023/03/24 02:15:07;;;;;;;9.80;9.50;;;12.50;99.90;;;;;;6198432;23;20227;-83
2023/03/24 02:17:56;;;;;;;9.70;9.40;;;12.50;99.90;;;;;;6198778;23;20204;-83
2023/03/24 02:21:11;;;;;;;9.80;9.50;;;12.50;99.90;;;;;;6198401;23;20207;-82
2023/03/24 02:24:28;;;;;;;9.60;9.30;;;12.60;99.90;;;;;;6183913;23;20203;-83
2023/03/24 02:27:08;;;;;;;9.93;9.63;;;12.60;99.90;;;;;;6199918;23;20198;-83
2023/03/24 02:30:17;;;;;;;9.90;9.60;;;12.60;99.90;;;;;;6201797;23;20243;-82
2023/03/24 02:33:34;;;;;;;9.63;9.33;;;12.60;99.90;;;;;;6200216;23;20183;-83
2023/03/24 02:36:51;;;;;;;9.60;9.30;;;12.60;99.90;;;;;;6199380;23;20195;-83
2023/03/24 02:40:15;;;;;;;9.33;9.03;;;12.70;99.90;;;;;;6198428;23;20187;-83
2023/03/24 02:42:56;;;;;;;8.90;8.70;;;12.70;99.90;;;;;;6145670;23;20211;-83
2023/03/24 02:45:35;;;;;;;9.30;9.00;;;12.70;99.90;;;;;;6198159;23;20237;-83
2023/03/24 02:48:19;;;;;;;8.97;8.77;;;12.70;99.90;;;;;;6198575;23;20253;-83
2023/03/24 02:50:57;;;;;;;9.40;9.10;;;12.80;99.90;;;;;;6198317;23;20199;-83
2023/03/24 02:53:38;;;;;;;9.53;9.23;;;12.80;99.90;;;;;;6198636;23;20191;-82
2023/03/24 02:56:13;;;;;;;9.10;8.83;;;12.80;99.90;;;;;;6198804;23;20203;-83
2023/03/24 02:58:46;;;;;;;9.30;9.00;;;12.80;99.90;;;;;;6198812;23;20203;-83
2023/03/24 03:01:19;;;;;;;9.87;9.57;;;12.80;99.90;;;;;;6198702;23;20226;-82
2023/03/24 03:03:51;;;;;;;9.83;9.53;;;12.80;99.90;;;;;;6198479;23;20191;-82
2023/03/24 03:06:24;;;;;;;9.60;9.30;;;12.80;99.90;;;;;;6198816;23;20207;-82
2023/03/24 03:08:54;;;;;;;9.30;9.00;;;12.80;99.90;;;;;;6197740;23;20199;-83
2023/03/24 03:11:28;;;;;;;9.60;9.30;;;12.80;99.90;;;;;;6197839;23;20203;-83
2023/03/24 03:14:04;;;;;;;9.43;9.13;;;12.80;99.90;;;;;;6198135;23;20199;-83
2023/03/24 03:16:38;;;;;;;9.60;9.30;;;12.80;99.90;;;;;;6198670;23;20188;-83
2023/03/24 03:19:16;;;;;;;9.60;9.30;;;12.80;99.90;;;;;;6198191;23;20247;-83
2023/03/24 03:21:46;;;;;;;9.70;9.40;;;12.80;99.90;;;;;;6208163;23;20199;-82
2023/03/24 03:24:25;;;;;;;9.50;9.20;;;12.80;99.90;;;;;;6206674;23;20247;-83
2023/03/24 03:27:00;;;;;;;9.40;9.10;;;12.80;99.90;;;;;;6202795;23;20255;-82
2023/03/24 03:29:37;;;;;;;9.47;9.17;;;12.80;99.90;;;;;;6200129;23;20222;-83
2023/03/24 03:32:07;;;;;;;9.43;9.13;;;12.80;99.90;;;;;;6199806;23;20202;-83
2023/03/24 03:34:44;;;;;;;9.17;8.87;;;12.80;99.90;;;;;;6199000;23;20191;-83
2023/03/24 03:37:22;;;;;;;9.57;9.27;;;12.90;99.90;;;;;;6198779;23;20210;-82
2023/03/24 03:39:54;;;;;;;9.60;9.30;;;12.80;99.90;;;;;;6199053;23;20211;-82
2023/03/24 03:42:25;;;;;;;9.53;9.23;;;12.80;99.90;;;;;;6198218;23;20195;-82
2023/03/24 03:44:53;;;;;;;9.30;9.00;;;12.80;99.90;;;;;;6198444;23;20191;-82
2023/03/24 03:47:21;;;;;;;9.20;8.90;;;12.80;99.90;;;;;;6199254;23;20218;-82
2023/03/24 03:49:51;;;;;;;8.70;8.50;;;12.80;99.90;;;;;;6200295;23;20199;-82
2023/03/24 03:52:20;;;;;;;9.10;8.80;;;12.80;99.90;;;;;;6198447;23;20208;-83
2023/03/24 03:54:48;;;;;;;8.90;8.70;;;12.80;99.90;;;;;;6197972;23;20303;-83
2023/03/24 03:57:19;;;;;;;8.90;8.70;;;12.70;99.90;;;;;;6197607;23;20219;-83
2023/03/24 03:59:51;;;;;;;8.70;8.50;;;12.70;99.90;;;;;;6198245;23;20247;-83
2023/03/24 04:02:39;;;;;;;9.03;8.80;;;12.70;99.90;;;;;;6198554;23;20192;-83
2023/03/24 04:05:27;;;;;;;9.20;8.90;;;12.60;99.90;;;;;;6198115;23;20204;-83
2023/03/24 04:08:24;;;;;;;8.80;8.60;;;12.60;99.90;;;;;;6197726;23;20196;-83
2023/03/24 04:11:33;;;;;;;8.87;8.67;;;12.60;99.90;;;;;;6179379;23;20211;-83
2023/03/24 04:14:47;;;;;;;9.30;9.00;;;12.70;99.90;;;;;;6196762;23;20224;-83
2023/03/24 04:17:35;;;;;;;9.30;9.00;;;12.60;99.90;;;;;;6143230;23;20204;-83
2023/03/24 04:20:13;;;;;;;8.77;8.57;;;12.60;99.90;;;;;;6197856;23;20211;-83
2023/03/24 04:23:01;;;;;;;8.70;8.50;;;12.60;99.90;;;;;;6199495;23;20202;-83
2023/03/24 04:25:37;;;;;;;8.80;8.60;;;12.60;99.90;;;;;;6199389;23;20207;-83
2023/03/24 04:28:19;;;;;;;9.30;9.00;;;12.50;99.90;;;;;;6199514;23;20195;-83
2023/03/24 04:30:54;;;;;;;9.33;9.03;;;12.50;99.90;;;;;;6199411;23;20285;-83
2023/03/24 04:33:39;;;;;;;8.90;8.70;;;12.50;99.90;;;;;;6199718;23;20198;-83
2023/03/24 04:36:17;;;;;;;9.20;8.90;;;12.50;99.90;;;;;;6200356;23;20199;-83
2023/03/24 04:38:52;;;;;;;8.90;8.70;;;12.40;99.90;;;;;;6200542;23;20196;-83
2023/03/24 04:41:21;;;;;;;8.50;8.30;;;12.50;99.90;;;;;;6200731;23;20207;-84
2023/03/24 04:43:50;;;;;;;8.83;8.63;;;12.50;99.90;;;;;;6201019;23;20203;-82
2023/03/24 04:46:17;;;;;;;9.07;8.80;;;12.50;99.90;;;;;;6199498;23;20282;-82
2023/03/24 04:48:48;;;;;;;9.30;9.00;;;12.50;99.90;;;;;;6206827;23;20203;-82
2023/03/24 04:51:16;;;;;;;9.20;8.90;;;12.50;99.90;;;;;;6200997;23;20703;-82
2023/03/24 04:53:46;;;;;;;9.50;9.20;;;12.50;99.90;;;;;;6201292;23;20211;-83
2023/03/24 04:56:39;;;;;;;9.20;8.90;;;12.50;99.90;;;;;;6199725;23;20195;-82
2023/03/24 04:59:11;;;;;;;8.80;8.60;;;12.50;99.90;;;;;;6199798;23;20194;-83
2023/03/24 05:01:40;;;;;;;8.90;8.70;;;12.50;99.90;;;;;;6199558;23;20278;-83
2023/03/24 05:04:12;;;;;;;8.93;8.73;;;12.50;99.90;;;;;;6199483;23;20275;-83
2023/03/24 05:06:39;;;;;;;8.97;8.77;;;12.50;99.90;;;;;;6199700;23;20274;-82
2023/03/24 05:09:07;;;;;;;9.47;9.17;;;12.50;99.90;;;;;;6201482;23;20235;-82
2023/03/24 05:11:36;;;;;;;9.40;9.10;;;12.60;99.90;;;;;;6202569;23;20550;-83
2023/03/24 05:14:04;;;;;;;9.77;9.47;;;12.60;99.90;;;;;;6204249;23;20287;-83
2023/03/24 05:16:31;;;;;;;10.10;9.80;;;12.60;99.90;;;;;;6202618;23;20222;-82
2023/03/24 05:18:59;;;;;;;10.10;9.80;;;12.60;99.90;;;;;;6201031;23;20234;-82
2023/03/24 05:21:29;;;;;;;10.27;9.97;;;12.70;99.90;;;;;;6201140;23;20219;-83
2023/03/24 05:23:57;;;;;;;10.10;9.80;;;12.70;99.90;;;;;;6203488;23;20187;-82
2023/03/24 05:26:25;;;;;;;10.33;10.03;;;12.70;99.90;;;;;;6202280;23;20242;-82
2023/03/24 05:28:53;;;;;;;10.40;10.10;;;12.70;99.90;;;;;;6199925;23;20215;-81
2023/03/24 05:31:21;;;;;;;9.60;9.30;;;12.80;99.90;;;;;;6200030;23;20282;-81
2023/03/24 05:33:51;;;;;;;9.73;9.43;;;12.80;99.90;;;;;;6205397;23;20326;-82
2023/03/24 05:36:20;;;;;;;9.70;9.40;;;12.80;99.90;;;;;;6206828;23;20206;-82
2023/03/24 05:38:51;;;;;;;9.57;9.27;;;12.90;99.90;;;;;;6202509;23;20227;-84
2023/03/24 05:41:20;;;;;;;9.90;9.60;;;13.10;99.90;;;;;;6202327;23;20204;-82
2023/03/24 05:43:48;;;;;;;9.80;9.50;;;13.10;99.90;;;;;;6201249;23;20254;-82
2023/03/24 05:46:15;;;;;;;9.80;9.50;;;13.20;99.90;;;;;;6200910;23;20191;-81
2023/03/24 05:48:43;;;;;;;9.70;9.40;;;13.30;99.90;;;;;;6201077;23;20664;-82
2023/03/24 05:51:10;;;;;;;9.90;9.60;;;13.30;99.90;;;;;;6200858;23;20196;-82
2023/03/24 05:53:40;;;;;;;9.70;9.40;;;13.40;99.90;;;;;;6210353;23;20206;-82
2023/03/24 05:56:11;;;;;;;9.73;9.43;;;13.50;99.90;;;;;;6203779;23;20276;-81
2023/03/24 05:58:39;;;;;;;9.83;9.53;;;13.50;99.90;;;;;;6202942;23;20188;-82
2023/03/24 06:01:17;;;;;;;9.73;9.43;;;13.60;99.90;;;;;;6200559;23;20223;-81
2023/03/24 06:03:47;;;;;;;9.70;9.40;;;13.70;99.90;;;;;;6201005;23;20278;-81
2023/03/24 06:06:17;;;;;;;9.70;9.40;;;13.70;99.90;;;;;;6201464;23;20207;-82
2023/03/24 06:08:47;;;;;;;9.82;9.52;;;13.80;99.90;;;;;;6199642;23;20231;-82
2023/03/24 06:11:20;;;;;;;9.75;9.45;;;13.80;99.90;;;;;;6200210;23;20208;-82
2023/03/24 06:13:47;;;;;;;9.80;9.50;;;13.80;99.90;;;;;;6202008;23;20225;-82
2023/03/24 06:16:17;;;;;;;9.83;9.53;;;13.80;99.90;;;;;;6201617;23;20207;-82
2023/03/24 06:18:51;;;;;;;9.50;9.20;;;13.90;99.90;;;;;;6200666;23;20234;-82
2023/03/24 06:21:29;;;;;;;9.70;9.40;;;13.90;99.90;;;;;;6201096;23;20218;-82
2023/03/24 06:23:57;;;;;;;9.70;9.40;;;14.00;99.90;;;;;;6201346;23;20199;-82
2023/03/24 06:26:29;;;;;;;9.70;9.40;;;13.90;99.90;;;;;;6201413;23;20199;-83
2023/03/24 06:29:03;;;;;;;9.70;9.40;;;13.90;99.90;;;;;;6201847;23;20255;-83
2023/03/24 06:31:31;;;;;;;9.50;9.20;;;13.90;99.90;;;;;;6202683;23;20278;-83
2023/03/24 06:34:00;;;;;;;9.90;9.60;;;14.00;99.90;;;;;;6201896;23;20206;-83
2023/03/24 06:36:30;;;;;;;9.70;9.40;;;14.00;99.90;;;;;;6201470;23;20220;-83
2023/03/24 06:38:59;;;;;;;9.75;9.45;;;14.00;99.90;;;;;;6201633;23;20195;-83
2023/03/24 06:41:37;;;;;;;9.40;9.10;;;14.10;99.90;;;;;;6201400;23;20251;-83
2023/03/24 06:44:06;;;;;;;9.63;9.32;;;14.00;99.90;;;;;;6200656;23;20600;-83
2023/03/24 06:46:36;;;;;;;9.40;9.10;;;13.90;99.90;;;;;;6201326;23;20203;-83
2023/03/24 06:49:06;;;;;;;9.33;9.03;;;13.80;99.90;;;;;;6201783;23;20199;-83
2023/03/24 06:51:35;;;;;;;9.60;9.30;;;13.80;99.90;;;;;;6200398;23;20212;-82
2023/03/24 06:54:05;;;;;;;9.77;9.47;;;13.70;99.90;;;;;;6200157;23;20223;-83
2023/03/24 06:56:36;;;;;;;10.03;9.73;;;13.60;99.90;;;;;;6205116;23;20203;-83
2023/03/24 06:59:04;;;;;;;9.67;9.37;;;13.70;99.90;;;;;;6201640;23;20227;-84
2023/03/24 07:01:33;;;;;;;9.83;9.53;;;13.70;99.90;;;;;;6201409;23;20251;-83
2023/03/24 07:04:02;;;;;;;9.63;9.33;;;13.80;99.90;;;;;;6212550;23;20207;-83
2023/03/24 07:06:32;;;;;;;9.57;9.27;;;13.80;99.90;;;;;;6206938;23;20230;-84
2023/03/24 07:09:01;;;;;;;9.43;9.13;;;13.90;99.90;;;;;;6203828;23;20278;-83
2023/03/24 07:11:30;;;;;;;9.60;9.30;;;13.90;99.90;;;;;;6202277;23;20211;-83
2023/03/24 07:14:11;;;;;;;9.63;9.33;;;14.00;99.90;;;;;;6202406;23;20203;-83
2023/03/24 07:16:39;;;;;;;9.83;9.53;;;13.90;99.90;;;;;;6202632;23;20195;-83
2023/03/24 07:19:07;;;;;;;9.47;9.17;;;14.00;99.90;;;;;;6201906;23;20211;-83
2023/03/24 07:21:36;;;;;;;9.63;9.32;;;14.00;99.90;;;;;;6201425;23;20208;-84
2023/03/24 07:24:08;;;;;;;9.80;9.50;;;14.00;99.90;;;;;;6200948;23;20192;-83
2023/03/24 07:26:36;;;;;;;9.53;9.23;;;14.00;99.90;;;;;;6201179;23;20195;-84
2023/03/24 07:29:14;;;;;;;9.80;9.50;;;14.00;99.90;;;;;;6200591;23;20203;-83
2023/03/24 07:31:43;;;;;;;10.10;9.80;;;14.00;99.90;;;;;;6199454;23;20353;-82
2023/03/24 07:34:12;;;;;;;10.00;9.70;;;14.00;99.90;;;;;;6201996;23;20191;-83
2023/03/24 07:36:42;;;;;;;10.00;9.70;;;14.00;99.90;;;;;;6199916;23;20207;-86
2023/03/24 07:39:12;;;;;;;9.93;9.63;;;14.10;99.90;;;;;;6198106;23;20200;-88
2023/03/24 07:41:41;;;;;;;9.80;9.50;;;14.10;99.90;;;;;;6199428;23;20546;-83
2023/03/24 07:46:57;;;;;;;9.70;9.40;;;14.10;99.90;;;;;;6196574;23;20219;-85
2023/03/24 07:49:27;;;;;;;9.83;9.53;;;14.10;99.90;;;;;;6199886;23;20254;-84
2023/03/24 07:51:57;;;;;;;9.70;9.40;;;14.10;99.90;;;;;;6201811;23;20255;-83
2023/03/24 07:54:26;;;;;;;9.48;9.18;;;14.10;99.90;;;;;;6202100;23;20202;-84
2023/03/24 07:56:56;;;;;;;9.57;9.27;;;14.00;99.90;;;;;;6204223;23;20251;-83
2023/03/24 07:59:27;;;;;;;9.57;9.27;;;14.00;99.90;;;;;;6207101;23;20196;-83
2023/03/24 08:01:55;;;;;;;9.68;9.38;;;14.00;99.90;;;;;;6204604;23;20266;-84
2023/03/24 08:04:25;;;;;;;9.50;9.20;;;14.00;99.90;;;;;;6204377;23;20239;-83
2023/03/24 08:06:56;;;;;;;9.40;9.10;;;14.00;99.90;;;;;;6204120;23;20200;-83
2023/03/24 08:09:24;;;;;;;9.60;9.30;;;14.00;99.90;;;;;;6201819;23;20223;-85
2023/03/24 08:11:54;;;;;;;9.70;9.40;;;14.00;99.90;;;;;;6201519;23;20195;-84
2023/03/24 08:14:23;;;;;;;9.75;9.45;;;14.10;99.90;;;;;;6202211;23;20206;-84
2023/03/24 08:16:56;;;;;;;9.80;9.50;;;14.10;99.90;;;;;;6206841;23;20255;-83
2023/03/24 08:19:24;;;;;;;9.90;9.60;;;14.10;99.90;;;;;;6206072;23;20231;-83
2023/03/24 08:21:52;;;;;;;10.00;9.70;;;14.10;99.90;;;;;;6203088;23;20275;-83
2023/03/24 08:24:21;;;;;;;9.50;9.20;;;14.10;99.90;;;;;;6203701;23;20214;-83
2023/03/24 08:26:51;;;;;;;9.83;9.53;;;14.10;99.90;;;;;;6203072;23;20202;-82
2023/03/24 08:29:20;;;;;;;9.80;9.50;;;14.10;99.90;;;;;;6201441;23;20258;-83
2023/03/24 08:31:49;;;;;;;9.70;9.40;;;14.10;99.90;;;;;;6202700;23;20215;-82
2023/03/24 08:34:21;;;;;;;10.13;9.83;;;14.10;99.90;;;;;;6204559;23;20208;-83
2023/03/24 08:36:48;;;;;;;9.90;9.60;;;14.10;99.90;;;;;;6204319;23;20574;-83
2023/03/24 08:39:18;;;;;;;9.97;9.67;;;14.10;99.90;;;;;;6206862;23;20208;-83
2023/03/24 08:41:48;;;;;;;10.00;9.70;;;14.10;99.90;;;;;;6206705;23;20242;-83
2023/03/24 08:44:16;;;;;;;10.18;9.88;;;14.10;99.90;;;;;;6205333;23;20196;-83
2023/03/24 08:46:46;;;;;;;10.30;10.00;;;14.10;99.90;;;;;;6205519;23;20204;-82
2023/03/24 08:49:15;;;;;;;10.33;10.03;;;14.10;99.90;;;;;;6205068;23;20252;-84
2023/03/24 08:54:32;;;;;;;10.10;9.80;;;13.90;99.90;;;;;;6205520;23;20196;-84
2023/03/24 08:57:01;;;;;;;10.33;10.03;;;13.90;99.90;;;;;;6206876;23;20278;-83
2023/03/24 08:59:30;;;;;;;10.30;10.00;;;13.90;99.90;;;;;;6204958;23;20215;-82
2023/03/24 09:02:00;;;;;;;10.50;10.20;;;13.80;99.90;;;;;;6206185;23;20275;-81
2023/03/24 09:04:30;;;;;;;10.43;10.13;;;13.80;99.90;;;;;;6203676;23;20279;-81
2023/03/24 09:09:46;;;;;;;10.40;10.10;;;13.70;99.90;;;;;;6202294;23;20199;-81
2023/03/24 09:12:16;;;;;;;10.40;10.10;;;13.60;99.90;;;;;;6204749;23;20940;-79
2023/03/24 09:14:49;;;;;;;10.10;9.80;;;13.60;99.90;;;;;;6205856;23;20199;-80
2023/03/24 09:17:16;;;;;;;10.03;9.73;;;13.50;99.90;;;;;;6210246;23;20227;-80
2023/03/24 09:19:44;;;;;;;10.30;10.00;;;13.40;99.90;;;;;;6213153;23;20210;-79
2023/03/24 09:22:15;;;;;;;10.30;10.00;;;13.30;99.90;;;;;;6215641;23;20206;-79
2023/03/24 09:24:43;;;;;;;10.37;10.07;;;13.30;99.90;;;;;;6217526;23;20199;-80
2023/03/24 09:27:12;;;;;;;10.50;10.20;;;13.20;99.90;;;;;;6217649;23;20187;-80
2023/03/24 09:29:41;;;;;;;10.37;10.07;;;13.10;99.90;;;;;;6217454;23;20268;-79
2023/03/24 09:32:11;;;;;;;10.23;9.93;;;13.00;99.90;;;;;;6216491;22;20203;-80
2023/03/24 09:34:40;;;;;;;9.77;9.47;;;13.00;99.90;;;;;;6217243;23;20209;-79
2023/03/24 09:37:09;;;;;;;9.97;9.67;;;13.00;99.90;;;;;;6215660;23;20251;-79
2023/03/24 09:39:42;;;;;;;9.50;9.20;;;13.00;99.90;;;;;;6216105;23;20198;-80
2023/03/24 09:42:20;;;;;;;9.50;9.20;;;12.90;99.90;;;;;;6217433;23;20211;-79
2023/03/24 09:44:56;;;;;;;9.43;9.13;;;12.90;99.90;;;;;;6217114;23;20207;-80
2023/03/24 09:47:35;;;;;;;9.40;9.10;;;12.90;99.90;;;;;;6217423;23;20192;-79
2023/03/24 09:50:12;;;;;;;9.30;9.00;;;12.90;99.90;;;;;;6215969;23;20195;-80
2023/03/24 09:52:45;;;;;;;8.90;8.70;;;13.00;99.90;;;;;;6215962;23;20202;-79
2023/03/24 09:55:21;;;;;;;9.67;9.37;;;13.00;99.90;;;;;;6216739;23;20188;-79
2023/03/24 09:57:51;;;;;;;9.60;9.30;;;13.10;99.90;;;;;;6214524;23;20192;-80
2023/03/24 10:00:27;;;;;;;9.40;9.10;;;13.20;99.90;;;;;;6218076;23;20296;-80
2023/03/24 10:03:05;;;;;;;9.80;9.50;;;13.30;99.90;;;;;;6214441;23;20195;-81
2023/03/24 10:05:46;;;;;;;9.40;9.10;;;13.40;99.90;;;;;;6217936;23;20202;-81
2023/03/24 10:08:19;;;;;;;9.80;9.50;;;13.50;99.90;;;;;;6208512;23;20218;-81
2023/03/24 10:11:00;;;;;;;10.03;9.73;;;13.60;99.90;;;;;;6212639;23;20208;-80
2023/03/24 10:13:43;;;;;;;9.93;9.63;;;13.70;99.90;;;;;;6203477;23;20231;-81
2023/03/24 10:16:19;;;;;;;9.90;9.60;;;13.80;99.90;;;;;;6204057;23;20283;-81
2023/03/24 10:18:58;;;;;;;9.90;9.60;;;13.80;99.90;;;;;;6201230;23;20196;-81
2023/03/24 10:21:28;;;;;;;10.50;10.20;;;14.00;99.90;;;;;;6202543;23;20230;-80
2023/03/24 10:24:05;;;;;;;10.30;10.00;;;14.00;99.90;;;;;;6201677;23;20208;-80
2023/03/24 10:26:45;;;;;;;10.20;9.90;;;14.00;99.90;;;;;;6200562;23;20282;-81
2023/03/24 10:29:23;;;;;;;10.13;9.83;;;14.10;99.90;;;;;;6202285;23;20202;-80
2023/03/24 10:34:41;;;;;;;10.40;10.10;;;14.10;99.90;;;;;;6200353;23;20238;-80
2023/03/24 10:39:54;;;;;;;9.80;9.50;;;14.10;99.90;;;;;;6201375;23;20219;-81
2023/03/24 10:42:33;;;;;;;10.40;10.10;;;14.10;99.90;;;;;;6202927;23;20628;-80
2023/03/24 10:45:02;;;;;;;10.00;9.70;;;14.20;99.90;;;;;;6202077;23;20256;-81
2023/03/24 10:47:31;;;;;;;10.30;10.00;;;14.20;99.90;;;;;;6204507;23;20204;-81
2023/03/24 10:50:01;;;;;;;10.33;10.03;;;14.20;99.90;;;;;;6203721;23;20721;-81
2023/03/24 10:52:39;;;;;;;10.23;9.93;;;14.30;99.90;;;;;;6203162;23;20195;-81
2023/03/24 10:55:18;;;;;;;10.20;9.90;;;14.20;99.90;;;;;;6204191;23;20330;-82
2023/03/24 10:57:55;;;;;;;10.25;9.95;;;14.30;99.90;;;;;;6205302;23;20223;-82
2023/03/24 11:00:28;;;;;;;10.75;10.45;;;14.30;99.90;;;;;;6208287;23;20231;-81
2023/03/24 11:03:04;;;;;;;10.32;10.02;;;14.30;99.90;;;;;;6205271;23;20198;-83
2023/03/24 11:05:42;;;;;;;9.90;9.60;;;14.30;99.90;;;;;;6202359;23;20188;-82
2023/03/24 11:08:29;;;;;;;9.93;9.63;;;14.40;99.90;;;;;;6202543;23;20195;-82
2023/03/24 11:10:58;;;;;;;9.85;9.55;;;14.40;99.90;;;;;;6200951;23;20211;-82
2023/03/24 11:13:36;;;;;;;9.98;9.68;;;14.40;99.90;;;;;;6202719;23;20208;-82
2023/03/24 11:16:14;;;;;;;10.15;9.85;;;14.50;99.90;;;;;;6200202;23;20250;-81
2023/03/24 11:19:01;;;;;;;9.77;9.48;;;14.50;99.90;;;;;;6202844;23;20218;-82
2023/03/24 11:21:31;;;;;;;9.88;9.57;;;14.50;99.90;;;;;;6201382;23;20231;-82
2023/03/24 11:24:00;;;;;;;10.02;9.73;;;14.50;99.90;;;;;;6200739;23;20341;-80
2023/03/24 11:26:32;;;;;;;10.00;9.70;;;14.50;99.90;;;;;;6201130;23;20214;-80
2023/03/24 11:29:09;;;;;;;10.10;9.80;;;14.50;99.90;;;;;;6201790;23;20207;-81
2023/03/24 11:31:39;;;;;;;10.10;9.80;;;14.50;99.90;;;;;;6200566;23;20219;-80
2023/03/24 11:34:15;;;;;;;9.70;9.40;;;14.50;99.90;;;;;;6200329;23;20203;-81
2023/03/24 11:36:53;;;;;;;10.00;9.70;;;14.50;99.90;;;;;;6201335;23;20203;-81
2023/03/24 11:39:24;;;;;;;9.60;9.30;;;14.50;99.90;;;;;;6201279;23;20207;-82
2023/03/24 11:42:01;;;;;;;9.90;9.60;;;14.60;99.90;;;;;;6200878;23;20211;-81
2023/03/24 11:44:49;;;;;;;10.20;9.90;;;14.60;99.90;;;;;;6200254;23;20206;-82
2023/03/24 11:47:26;;;;;;;9.82;9.52;;;14.60;99.90;;;;;;6199563;23;20196;-80
2023/03/24 11:50:06;;;;;;;9.88;9.57;;;14.70;99.90;;;;;;6201492;23;20214;-81
2023/03/24 11:52:43;;;;;;;10.15;9.85;;;14.80;99.90;;;;;;6201039;23;20219;-81
2023/03/24 11:55:21;;;;;;;10.30;10.00;;;14.90;99.90;;;;;;6207150;23;20226;-82
2023/03/24 12:00:47;;;;;;;10.13;9.82;;;15.10;99.90;;;;;;6207087;23;20209;-83
2023/03/24 12:04:00;;;;;;;10.10;9.80;;;15.20;99.90;;;;;;6205526;23;20187;-85
2023/03/24 12:09:53;;;;;;;10.38;10.07;;;15.10;99.90;;;;;;6203649;23;20196;-87
2023/03/24 12:12:32;;;;;;;10.38;10.07;;;15.00;99.90;;;;;;6205119;23;20205;-85
2023/03/24 12:15:27;;;;;;;9.82;9.52;;;15.00;99.90;;;;;;6202273;23;20223;-84
2023/03/24 12:18:36;;;;;;;10.00;9.70;;;15.00;99.90;;;;;;6228008;22;20214;-83
2023/03/24 12:21:19;;;;;;;10.13;9.82;;;15.10;99.90;;;;;;6268988;22;20190;-84
2023/03/24 12:24:01;;;;;;;9.95;9.65;;;15.20;99.90;;;;;;6266178;22;20198;-84
2023/03/24 12:26:35;;;;;;;10.00;9.70;;;15.40;99.90;;;;;;6266443;22;20213;-84
2023/03/24 12:36:44;;;;;;;10.18;9.88;;;15.60;99.90;;;;;;6236006;22;20207;-84
2023/03/24 12:39:34;;;;;;;9.95;9.65;;;15.70;99.90;;;;;;6110583;22;20224;-84
2023/03/24 12:42:52;;;;;;;10.00;9.70;;;15.90;99.90;;;;;;6249545;22;20246;-84
2023/03/24 16:01:59;;;;;;;9.97;9.67;;;11.40;99.90;;;;;;6295242;22;20220;-84
2023/03/24 16:04:30;;;;;;;10.10;9.80;;;11.40;99.90;;;;;;6294974;22;20265;-83
2023/03/24 16:07:01;;;;;;;10.30;10.00;;;11.40;99.90;;;;;;6283560;22;20228;-83
2023/03/24 16:09:39;;;;;;;10.00;9.70;;;11.40;99.90;;;;;;6261725;22;20198;-82
2023/03/24 16:12:17;;;;;;;9.77;9.47;;;11.40;99.90;;;;;;6261980;22;20194;-89
2023/03/24 16:29:35;;;;;;;9.20;8.90;;;11.40;99.90;;;;;;6263824;22;20198;-86
2023/03/24 18:19:25;;;;;;;9.47;9.17;;;11.20;99.90;;;;;;6247922;22;20305;-80
2023/03/24 18:21:59;;;;;;;9.90;9.60;;;11.20;99.90;;;;;;6235605;23;20206;-80
2023/03/24 18:24:28;;;;;;;9.77;9.47;;;11.20;99.90;;;;;;6236347;23;20281;-81
2023/03/24 18:26:57;;;;;;;10.00;9.70;;;11.20;99.90;;;;;;6234948;23;20372;-81
2023/03/24 18:29:26;;;;;;;9.50;9.20;;;11.20;99.90;;;;;;6223904;23;20210;-80
2023/03/24 18:31:55;;;;;;;9.87;9.57;;;11.20;99.90;;;;;;6204340;23;20207;-82
2023/03/24 18:34:26;;;;;;;9.70;9.40;;;11.20;99.90;;;;;;6201483;23;20271;-81
2023/03/24 18:37:03;;;;;;;10.20;9.90;;;11.10;99.90;;;;;;6204307;23;20306;-81
2023/03/24 18:39:33;;;;;;;9.90;9.60;;;11.10;99.90;;;;;;6203914;23;20203;-80
2023/03/24 18:42:02;;;;;;;10.10;9.80;;;11.10;99.90;;;;;;6203631;23;20204;-80
2023/03/24 18:44:31;;;;;;;9.40;9.10;;;11.10;99.90;;;;;;6204487;23;20247;-81
2023/03/24 18:47:02;;;;;;;9.53;9.23;;;11.10;99.90;;;;;;6204513;23;20188;-80
2023/03/24 18:49:31;;;;;;;9.73;9.43;;;11.10;99.90;;;;;;6203957;23;20239;-81
2023/03/24 18:52:02;;;;;;;9.60;9.30;;;11.10;99.90;;;;;;6211427;22;20259;-80
2023/03/24 18:54:29;;;;;;;9.67;9.37;;;11.10;99.90;;;;;;6218788;22;20179;-81
2023/03/24 18:56:58;;;;;;;9.80;9.50;;;11.00;99.90;;;;;;6212219;23;20215;-81
2023/03/24 18:59:29;;;;;;;9.30;9.00;;;11.00;99.90;;;;;;6205525;23;20227;-81
2023/03/24 19:01:59;;;;;;;9.13;8.83;;;11.00;99.90;;;;;;6200852;23;20207;-81
2023/03/24 19:04:27;;;;;;;9.47;9.17;;;11.00;99.90;;;;;;6200203;23;20271;-81